Time;durP1;ratioP1;P1;durP2;ratioP2;P2;SDS_P1;SDS_P2;PMS_P1;PMS_P2;Temp;Humidity;BMP_temperature;BMP_pressure;BME280_temperature;BME280_humidity;BME280_pressure;Samples;Min_cycle;Max_cycle;Signal;HPM_P1;HPM_P2
2021/06/21 00:00:54;;;;;;;14.00;10.07;;;22.20;85.20;;;;;;5059209;28;20827;-49
2021/06/21 00:03:21;;;;;;;16.07;11.50;;;22.10;84.90;;;;;;5056019;28;20451;-48
2021/06/21 00:05:48;;;;;;;13.40;8.90;;;22.10;84.60;;;;;;5056761;28;20454;-48
2021/06/21 00:08:16;;;;;;;16.33;9.27;;;22.10;84.40;;;;;;5060827;28;20462;-48
2021/06/21 00:10:43;;;;;;;11.90;8.73;;;22.10;84.70;;;;;;5059899;28;20467;-49
2021/06/21 00:13:10;;;;;;;10.73;6.80;;;22.10;84.90;;;;;;5060813;28;20465;-49
2021/06/21 00:15:37;;;;;;;9.10;6.60;;;22.00;84.90;;;;;;5058167;28;20453;-49
2021/06/21 00:18:04;;;;;;;12.07;6.80;;;22.00;84.90;;;;;;5060881;28;20465;-49
2021/06/21 00:20:31;;;;;;;12.90;7.73;;;22.00;84.70;;;;;;5053524;28;20465;-49
2021/06/21 00:22:58;;;;;;;7.07;5.60;;;21.90;84.80;;;;;;5054201;28;20467;-49
2021/06/21 00:25:24;;;;;;;9.90;5.73;;;21.90;85.00;;;;;;5051972;28;20461;-49
2021/06/21 00:27:52;;;;;;;6.67;4.27;;;21.90;85.00;;;;;;5051871;28;20489;-49
2021/06/21 00:30:20;;;;;;;9.37;4.40;;;21.90;84.70;;;;;;5063055;28;20441;-49
2021/06/21 00:32:48;;;;;;;11.93;4.67;;;21.90;84.50;;;;;;5058208;28;20814;-49
2021/06/21 00:35:16;;;;;;;9.07;4.80;;;21.90;84.40;;;;;;5088807;27;20477;-49
2021/06/21 00:37:44;;;;;;;6.87;3.33;;;21.80;84.50;;;;;;5059899;28;21012;-49
2021/06/21 00:40:12;;;;;;;10.13;4.70;;;21.80;84.50;;;;;;5061910;28;20811;-49
2021/06/21 00:42:45;;;;;;;7.37;3.40;;;21.80;84.60;;;;;;5062023;28;20455;-49
2021/06/21 00:45:13;;;;;;;4.50;2.50;;;21.80;84.50;;;;;;5060876;28;20470;-48
2021/06/21 00:47:40;;;;;;;9.30;3.40;;;21.80;84.40;;;;;;5058557;28;20829;-48
2021/06/21 00:50:08;;;;;;;6.90;3.00;;;21.70;84.40;;;;;;5061348;28;20465;-48
2021/06/21 00:52:35;;;;;;;6.10;3.23;;;21.70;84.40;;;;;;5061594;28;21097;-48
2021/06/21 00:55:04;;;;;;;6.33;3.13;;;21.70;84.50;;;;;;5061096;28;20462;-49
2021/06/21 00:57:33;;;;;;;5.90;3.33;;;21.70;84.50;;;;;;5057418;28;20465;-48
2021/06/21 01:00:04;;;;;;;7.40;2.40;;;21.70;84.40;;;;;;5055597;28;20868;-49
2021/06/21 01:02:31;;;;;;;10.90;4.13;;;21.70;84.30;;;;;;5073772;28;20458;-48
2021/06/21 01:04:58;;;;;;;5.60;3.07;;;21.60;84.30;;;;;;5058993;28;20513;-49
2021/06/21 01:07:25;;;;;;;7.10;3.40;;;21.60;84.40;;;;;;5063772;28;20450;-49
2021/06/21 01:09:53;;;;;;;8.30;3.13;;;21.60;84.50;;;;;;5056678;28;20829;-49
2021/06/21 01:12:47;;;;;;;7.43;3.30;;;21.60;84.40;;;;;;5058692;28;20469;-49
2021/06/21 01:15:20;;;;;;;8.73;3.00;;;21.50;84.50;;;;;;5073653;28;20461;-49
2021/06/21 01:17:56;;;;;;;7.30;3.70;;;21.50;83.90;;;;;;5054613;28;20486;-49
2021/06/21 01:20:44;;;;;;;3.97;2.40;;;21.50;84.00;;;;;;5059384;28;20480;-49
2021/06/21 01:23:48;;;;;;;5.00;2.90;;;21.50;84.10;;;;;;5055775;28;20450;-49
2021/06/21 01:26:44;;;;;;;8.60;2.90;;;21.50;83.90;;;;;;5056118;28;20461;-49
2021/06/21 01:29:38;;;;;;;10.30;3.53;;;21.40;83.90;;;;;;5063093;28;20463;-48
2021/06/21 01:32:16;;;;;;;6.43;3.27;;;21.40;83.70;;;;;;5061228;28;20457;-49
2021/06/21 01:34:50;;;;;;;6.13;3.40;;;21.40;83.70;;;;;;5077493;28;20466;-48
2021/06/21 01:37:18;;;;;;;7.93;3.77;;;21.40;83.80;;;;;;5057036;28;20461;-49
2021/06/21 01:39:48;;;;;;;5.73;3.70;;;21.30;83.90;;;;;;5058080;28;20497;-49
2021/06/21 01:42:18;;;;;;;7.10;3.63;;;21.30;84.00;;;;;;5083973;28;20469;-48
2021/06/21 01:44:53;;;;;;;5.60;3.03;;;21.30;83.90;;;;;;5059677;28;20462;-49
2021/06/21 01:47:22;;;;;;;4.10;3.00;;;21.30;83.90;;;;;;5061632;28;20505;-48
2021/06/21 01:49:51;;;;;;;6.20;2.90;;;21.20;83.80;;;;;;5058764;28;20975;-48
2021/06/21 01:52:19;;;;;;;10.10;2.93;;;21.20;83.80;;;;;;5056990;28;20501;-49
2021/06/21 01:54:53;;;;;;;4.27;2.60;;;21.20;83.80;;;;;;5059728;28;20458;-48
2021/06/21 01:57:24;;;;;;;10.70;3.40;;;21.20;83.80;;;;;;5059617;28;20499;-48
2021/06/21 01:59:52;;;;;;;8.67;2.60;;;21.10;83.70;;;;;;5057191;28;20489;-48
2021/06/21 02:02:24;;;;;;;8.47;2.43;;;21.10;83.60;;;;;;5055488;28;20489;-48
2021/06/21 02:04:53;;;;;;;6.63;2.50;;;21.10;83.60;;;;;;5055747;28;20971;-48
2021/06/21 02:07:22;;;;;;;7.27;3.10;;;21.10;83.50;;;;;;5057539;28;20943;-48
2021/06/21 02:09:52;;;;;;;4.60;2.80;;;21.10;83.10;;;;;;5058430;28;20962;-48
2021/06/21 02:12:21;;;;;;;9.03;1.80;;;21.00;82.80;;;;;;5058050;28;20449;-48
2021/06/21 02:14:50;;;;;;;4.60;2.60;;;21.00;82.50;;;;;;5058042;28;20454;-48
2021/06/21 02:17:22;;;;;;;4.87;2.10;;;21.00;82.40;;;;;;5054826;28;20460;-48
2021/06/21 02:19:52;;;;;;;5.20;2.57;;;21.00;82.40;;;;;;5056552;28;20498;-48
2021/06/21 02:22:22;;;;;;;6.90;2.40;;;20.90;82.30;;;;;;5058602;28;20492;-48
2021/06/21 02:24:50;;;;;;;8.97;2.10;;;20.90;82.30;;;;;;5059820;28;20817;-48
2021/06/21 02:27:19;;;;;;;5.50;2.07;;;20.90;82.00;;;;;;5057949;28;20790;-48
2021/06/21 02:29:48;;;;;;;13.47;2.37;;;20.90;81.90;;;;;;5093104;27;20961;-48
2021/06/21 02:32:16;;;;;;;5.40;2.13;;;20.90;81.90;;;;;;5056538;28;20460;-48
2021/06/21 02:34:43;;;;;;;3.77;1.97;;;20.90;82.10;;;;;;5059956;28;20896;-48
2021/06/21 02:37:11;;;;;;;9.93;3.17;;;20.90;82.20;;;;;;5058815;28;20665;-48
2021/06/21 02:39:39;;;;;;;9.00;3.10;;;20.90;82.30;;;;;;5084855;28;20482;-48
2021/06/21 02:42:06;;;;;;;6.30;2.40;;;20.90;82.30;;;;;;5060326;28;20459;-46
2021/06/21 02:44:34;;;;;;;7.70;2.20;;;20.90;82.00;;;;;;5059656;28;20446;-48
2021/06/21 02:47:03;;;;;;;6.67;2.30;;;20.90;81.80;;;;;;5058879;28;20798;-48
2021/06/21 02:49:30;;;;;;;8.57;2.93;;;21.00;81.80;;;;;;5062171;28;20575;-48
2021/06/21 02:52:14;;;;;;;8.90;2.80;;;21.00;81.70;;;;;;5055857;28;21030;-48
2021/06/21 02:55:07;;;;;;;8.87;2.93;;;20.90;81.30;;;;;;5055508;28;20965;-48
2021/06/21 02:57:44;;;;;;;3.47;1.60;;;20.90;80.90;;;;;;5056224;28;20458;-48
2021/06/21 03:00:11;;;;;;;8.77;2.20;;;20.90;81.50;;;;;;5062053;28;20803;-48
2021/06/21 03:02:39;;;;;;;2.90;1.50;;;20.80;81.70;;;;;;5055655;28;20447;-48
2021/06/21 03:05:07;;;;;;;2.70;2.13;;;20.80;81.90;;;;;;5086076;27;20449;-48
2021/06/21 03:07:35;;;;;;;6.73;2.23;;;20.80;81.90;;;;;;5055208;28;20852;-48
2021/06/21 03:10:04;;;;;;;8.63;2.43;;;20.80;81.90;;;;;;5057498;28;20794;-48
2021/06/21 03:12:31;;;;;;;9.00;2.50;;;20.70;81.70;;;;;;5054276;28;20467;-48
2021/06/21 03:14:59;;;;;;;11.50;3.10;;;20.70;81.90;;;;;;5058399;28;20508;-48
2021/06/21 03:17:26;;;;;;;10.70;2.33;;;20.70;82.00;;;;;;5055694;28;20826;-48
2021/06/21 03:19:54;;;;;;;9.53;2.30;;;20.70;82.00;;;;;;5056048;28;20500;-48
2021/06/21 03:22:25;;;;;;;6.47;1.93;;;20.70;81.70;;;;;;5059922;28;20454;-48
2021/06/21 03:24:56;;;;;;;11.03;2.23;;;20.70;81.70;;;;;;5057679;28;21197;-48
2021/06/21 03:27:34;;;;;;;6.83;1.87;;;20.70;81.70;;;;;;5056702;28;20458;-48
2021/06/21 03:30:12;;;;;;;5.97;2.27;;;20.70;81.50;;;;;;5059670;28;20462;-48
2021/06/21 03:32:42;;;;;;;7.43;2.33;;;20.70;81.50;;;;;;5060651;28;20461;-48
2021/06/21 03:35:11;;;;;;;4.00;1.63;;;20.70;81.30;;;;;;5059571;28;20458;-48
2021/06/21 03:37:39;;;;;;;8.40;2.50;;;20.70;81.10;;;;;;5055508;28;20469;-48
2021/06/21 03:40:08;;;;;;;4.30;1.47;;;20.60;81.20;;;;;;5057473;28;20855;-47
2021/06/21 03:42:35;;;;;;;5.80;2.30;;;20.70;81.00;;;;;;5060200;28;20446;-48
2021/06/21 03:45:03;;;;;;;5.73;1.73;;;20.60;81.00;;;;;;5056060;28;20461;-48
2021/06/21 03:47:30;;;;;;;7.43;2.40;;;20.60;81.00;;;;;;5055519;28;20570;-48
2021/06/21 03:49:56;;;;;;;7.47;1.73;;;20.60;81.10;;;;;;5053366;28;20476;-48
2021/06/21 03:52:23;;;;;;;2.93;1.80;;;20.60;81.00;;;;;;5059474;28;20845;-48
2021/06/21 03:55:06;;;;;;;7.43;2.40;;;20.50;81.00;;;;;;5055609;28;20457;-48
2021/06/21 03:57:44;;;;;;;5.20;1.60;;;20.60;80.50;;;;;;5065948;28;20449;-48
2021/06/21 04:00:17;;;;;;;8.60;2.77;;;20.60;80.60;;;;;;5063910;28;20493;-48
2021/06/21 04:02:44;;;;;;;8.00;1.93;;;20.60;80.10;;;;;;5055566;28;20460;-48
2021/06/21 04:05:12;;;;;;;8.53;2.10;;;20.60;80.30;;;;;;5052975;28;20466;-48
2021/06/21 04:07:41;;;;;;;7.30;1.70;;;20.60;80.00;;;;;;5046154;28;20461;-48
2021/06/21 04:10:14;;;;;;;5.60;2.50;;;20.60;79.50;;;;;;5057236;28;20983;-48
2021/06/21 04:12:42;;;;;;;3.23;1.73;;;20.50;79.70;;;;;;5062728;28;20467;-48
2021/06/21 04:15:11;;;;;;;6.20;1.70;;;20.50;79.90;;;;;;5063152;28;20457;-48
2021/06/21 04:17:39;;;;;;;5.03;1.60;;;20.40;80.50;;;;;;5059748;28;20492;-48
2021/06/21 04:20:11;;;;;;;7.17;2.47;;;20.40;80.80;;;;;;5062619;28;20488;-48
2021/06/21 04:22:39;;;;;;;3.70;1.50;;;20.40;80.90;;;;;;5076483;28;21019;-48
2021/06/21 04:25:12;;;;;;;5.17;2.30;;;20.40;80.90;;;;;;5088575;28;20467;-48
2021/06/21 04:27:39;;;;;;;7.93;2.37;;;20.40;80.90;;;;;;5061118;28;20480;-48
2021/06/21 04:30:09;;;;;;;5.07;1.73;;;20.40;80.90;;;;;;5059189;28;20536;-48
2021/06/21 04:32:36;;;;;;;5.07;1.90;;;20.40;80.50;;;;;;5062721;28;20811;-48
2021/06/21 04:35:05;;;;;;;4.07;1.83;;;20.50;80.60;;;;;;5066096;28;20548;-48
2021/06/21 04:37:32;;;;;;;4.40;2.17;;;20.50;80.70;;;;;;5057573;28;20465;-48
2021/06/21 04:40:00;;;;;;;5.73;2.53;;;20.50;80.40;;;;;;5059083;28;20861;-48
2021/06/21 04:42:27;;;;;;;4.70;1.80;;;20.50;80.70;;;;;;5061776;28;20459;-47
2021/06/21 04:44:54;;;;;;;6.30;2.00;;;20.50;80.60;;;;;;5058869;28;20449;-48
2021/06/21 04:47:24;;;;;;;7.43;1.90;;;20.60;80.20;;;;;;5061452;28;20935;-48
2021/06/21 04:49:56;;;;;;;7.27;2.10;;;20.60;79.90;;;;;;5056975;28;20472;-48
2021/06/21 04:52:26;;;;;;;6.90;2.00;;;20.60;80.20;;;;;;5057129;28;20462;-48
2021/06/21 04:55:00;;;;;;;6.90;1.57;;;20.60;80.20;;;;;;5063661;28;20475;-48
2021/06/21 04:57:32;;;;;;;2.43;1.87;;;20.60;80.10;;;;;;5058855;28;20807;-48
2021/06/21 05:00:00;;;;;;;3.10;1.50;;;20.60;79.70;;;;;;5061574;28;20489;-48
2021/06/21 05:02:27;;;;;;;11.67;2.33;;;20.60;79.70;;;;;;5066161;28;20446;-48
2021/06/21 05:04:53;;;;;;;7.03;2.70;;;20.60;79.60;;;;;;5062741;28;20492;-47
2021/06/21 05:07:20;;;;;;;8.17;1.97;;;20.60;79.80;;;;;;5066673;28;20922;-48
2021/06/21 05:09:50;;;;;;;6.93;2.00;;;20.50;79.90;;;;;;5060419;28;20975;-48
2021/06/21 05:12:17;;;;;;;8.80;2.50;;;20.60;79.80;;;;;;5065883;28;20461;-48
2021/06/21 05:14:46;;;;;;;2.70;1.73;;;20.60;79.60;;;;;;5063443;28;20472;-48
2021/06/21 05:17:13;;;;;;;3.10;1.63;;;20.60;79.60;;;;;;5063475;28;20462;-47
2021/06/21 05:19:40;;;;;;;3.10;1.63;;;20.60;79.40;;;;;;5063571;28;20485;-48
2021/06/21 05:22:07;;;;;;;4.80;2.07;;;20.60;79.70;;;;;;5072681;28;20503;-48
2021/06/21 05:24:34;;;;;;;7.10;2.33;;;20.60;79.50;;;;;;5065253;28;20457;-48
2021/06/21 05:27:01;;;;;;;3.87;2.40;;;20.60;79.50;;;;;;5060957;28;20468;-48
2021/06/21 05:29:28;;;;;;;3.80;2.13;;;20.70;79.40;;;;;;5062237;28;20453;-48
2021/06/21 05:31:55;;;;;;;7.23;2.27;;;20.80;79.00;;;;;;5065192;28;20988;-48
2021/06/21 05:34:22;;;;;;;3.53;1.83;;;20.70;79.40;;;;;;5061050;28;20461;-48
2021/06/21 05:36:49;;;;;;;4.00;2.17;;;20.80;79.40;;;;;;5054972;28;20463;-48
2021/06/21 05:39:15;;;;;;;5.10;2.17;;;20.80;79.60;;;;;;5087951;27;20461;-48
2021/06/21 05:41:42;;;;;;;3.40;1.97;;;20.90;79.50;;;;;;5058940;28;20943;-48
2021/06/21 05:44:09;;;;;;;4.90;2.30;;;20.90;79.50;;;;;;5066115;28;20465;-48
2021/06/21 05:46:36;;;;;;;7.93;3.07;;;21.00;79.40;;;;;;5060162;28;20970;-48
2021/06/21 05:49:03;;;;;;;4.77;2.07;;;21.00;79.10;;;;;;5056068;28;20478;-48
2021/06/21 05:51:29;;;;;;;5.37;1.97;;;21.10;78.50;;;;;;5059847;28;20466;-48
2021/06/21 05:53:56;;;;;;;3.73;2.10;;;21.20;78.30;;;;;;5060011;28;20459;-48
2021/06/21 05:56:23;;;;;;;4.10;2.43;;;21.20;78.00;;;;;;5061249;28;20888;-48
2021/06/21 05:58:50;;;;;;;3.77;2.00;;;21.20;78.10;;;;;;5062167;28;20496;-48
2021/06/21 06:01:17;;;;;;;7.50;2.27;;;21.30;77.70;;;;;;5057791;28;20501;-48
2021/06/21 06:03:47;;;;;;;8.07;2.70;;;21.30;77.20;;;;;;5057313;28;21021;-47
2021/06/21 06:06:13;;;;;;;7.37;2.20;;;21.20;77.70;;;;;;5059941;28;20544;-48
2021/06/21 06:08:40;;;;;;;9.80;2.63;;;21.20;78.20;;;;;;5059614;28;20815;-48
2021/06/21 06:11:07;;;;;;;4.13;2.10;;;21.20;78.20;;;;;;5060378;28;20474;-48
2021/06/21 06:13:35;;;;;;;4.37;2.30;;;21.20;77.50;;;;;;5061779;28;20458;-48
2021/06/21 06:16:03;;;;;;;9.53;2.27;;;21.20;77.60;;;;;;5060692;28;20468;-48
2021/06/21 06:18:30;;;;;;;4.00;2.50;;;21.10;77.40;;;;;;5056456;28;20485;-48
2021/06/21 06:20:57;;;;;;;3.43;2.33;;;21.10;77.80;;;;;;5056876;28;20500;-48
2021/06/21 06:23:36;;;;;;;9.33;2.50;;;21.00;78.20;;;;;;5060995;28;20582;-48
2021/06/21 06:26:03;;;;;;;4.17;2.30;;;21.00;78.80;;;;;;5058321;28;20461;-48
2021/06/21 06:28:31;;;;;;;6.80;2.30;;;21.00;78.30;;;;;;5059653;28;20626;-48
2021/06/21 06:30:58;;;;;;;3.27;1.93;;;21.00;77.60;;;;;;5079318;28;20438;-48
2021/06/21 06:33:24;;;;;;;4.67;2.50;;;21.10;77.20;;;;;;5063167;28;20464;-47
2021/06/21 06:35:52;;;;;;;4.83;2.33;;;21.10;77.70;;;;;;5085807;28;21014;-48
2021/06/21 06:38:19;;;;;;;5.40;3.20;;;21.10;76.70;;;;;;5075231;28;20681;-48
2021/06/21 06:40:46;;;;;;;4.67;2.73;;;21.10;76.30;;;;;;5074646;28;20491;-48
2021/06/21 06:43:13;;;;;;;5.77;2.10;;;21.10;75.80;;;;;;5060765;28;20832;-48
2021/06/21 06:45:40;;;;;;;7.20;2.17;;;21.10;75.90;;;;;;5060307;28;20458;-48
2021/06/21 06:48:07;;;;;;;7.30;2.30;;;21.00;76.70;;;;;;5062598;28;20462;-48
2021/06/21 06:50:34;;;;;;;4.20;3.23;;;21.00;76.50;;;;;;5058280;28;20826;-48
2021/06/21 06:53:02;;;;;;;4.13;1.77;;;21.00;77.10;;;;;;5056106;28;20541;-47
2021/06/21 06:58:14;;;;;;;9.73;2.13;;;21.20;76.00;;;;;;5055631;28;20466;-47
2021/06/21 07:00:40;;;;;;;4.80;2.37;;;21.30;75.90;;;;;;5055863;28;21875;-48
2021/06/21 07:03:08;;;;;;;2.00;1.73;;;21.40;74.80;;;;;;5053236;28;20541;-47
2021/06/21 07:05:36;;;;;;;6.50;2.30;;;21.50;74.90;;;;;;5054983;28;20532;-47
2021/06/21 07:08:03;;;;;;;5.00;1.50;;;21.60;75.10;;;;;;5060234;28;20509;-48
2021/06/21 07:10:30;;;;;;;2.10;1.43;;;21.70;74.20;;;;;;5058596;28;20468;-47
2021/06/21 07:12:58;;;;;;;4.30;1.77;;;21.80;74.20;;;;;;5054451;28;20454;-52
2021/06/21 07:15:24;;;;;;;4.70;1.90;;;21.90;73.10;;;;;;5056855;28;20470;-48
2021/06/21 07:17:52;;;;;;;2.50;1.90;;;21.90;73.40;;;;;;5053168;28;20509;-48
2021/06/21 07:20:19;;;;;;;2.07;1.57;;;22.00;73.00;;;;;;5056922;28;20485;-48
2021/06/21 07:22:48;;;;;;;3.27;1.90;;;22.00;72.20;;;;;;5055697;28;20449;-48
2021/06/21 07:25:15;;;;;;;2.70;1.73;;;22.00;72.80;;;;;;5057792;28;20466;-48
2021/06/21 07:27:42;;;;;;;8.87;2.80;;;22.00;72.80;;;;;;5054979;28;20465;-48
2021/06/21 07:30:10;;;;;;;3.50;2.27;;;22.00;73.20;;;;;;5060189;28;20463;-48
2021/06/21 07:32:38;;;;;;;4.40;2.23;;;22.00;73.00;;;;;;5059283;28;20454;-48
2021/06/21 07:35:05;;;;;;;2.77;1.90;;;22.00;73.30;;;;;;5052947;28;20458;-48
2021/06/21 07:37:32;;;;;;;3.40;1.90;;;22.10;72.80;;;;;;5059128;28;20461;-48
2021/06/21 07:39:59;;;;;;;5.53;2.03;;;22.20;73.10;;;;;;5056727;28;20461;-48
2021/06/21 07:42:26;;;;;;;5.60;1.87;;;22.30;73.40;;;;;;5058126;28;20454;-48
2021/06/21 07:44:52;;;;;;;5.20;1.80;;;22.50;71.90;;;;;;5061055;28;20444;-48
2021/06/21 07:47:20;;;;;;;2.10;1.90;;;22.60;71.50;;;;;;5062535;28;20810;-48
2021/06/21 07:49:46;;;;;;;4.27;1.77;;;22.70;71.50;;;;;;5058896;28;20496;-48
2021/06/21 07:52:13;;;;;;;3.10;2.00;;;22.80;70.80;;;;;;5075526;28;20461;-48
2021/06/21 07:54:40;;;;;;;3.10;1.90;;;22.90;69.70;;;;;;5066780;28;20457;-48
2021/06/21 07:57:09;;;;;;;2.67;1.87;;;22.90;69.00;;;;;;5059756;28;20454;-48
2021/06/21 07:59:36;;;;;;;4.37;2.17;;;22.90;69.60;;;;;;5061029;28;21684;-48
2021/06/21 08:02:02;;;;;;;6.10;2.67;;;23.00;69.90;;;;;;5058417;28;20493;-48
2021/06/21 08:04:29;;;;;;;3.20;1.83;;;23.10;69.60;;;;;;5062987;28;20961;-48
2021/06/21 08:06:56;;;;;;;3.20;2.50;;;23.30;69.40;;;;;;5061939;28;20454;-48
2021/06/21 08:09:23;;;;;;;5.60;1.77;;;23.50;68.10;;;;;;5064852;28;20462;-48
2021/06/21 08:11:50;;;;;;;2.70;1.70;;;23.70;67.90;;;;;;5060675;28;20845;-49
2021/06/21 08:14:19;;;;;;;2.80;2.20;;;23.90;67.20;;;;;;5064503;28;20953;-49
2021/06/21 08:16:45;;;;;;;5.67;2.73;;;23.90;67.10;;;;;;5069026;28;20451;-48
2021/06/21 08:19:12;;;;;;;3.57;2.40;;;23.90;67.10;;;;;;5062048;28;20926;-49
2021/06/21 08:21:39;;;;;;;5.70;2.80;;;23.90;67.50;;;;;;5062156;28;20485;-48
2021/06/21 08:24:10;;;;;;;12.83;2.80;;;24.00;67.70;;;;;;5059805;28;20445;-48
2021/06/21 08:26:38;;;;;;;3.77;2.13;;;24.10;67.00;;;;;;5058884;28;20812;-48
2021/06/21 08:29:05;;;;;;;6.30;2.77;;;24.20;66.70;;;;;;5061755;28;20450;-48
2021/06/21 08:31:32;;;;;;;10.47;4.20;;;24.20;65.90;;;;;;5061339;28;20517;-48
2021/06/21 08:33:59;;;;;;;5.20;2.57;;;24.20;66.20;;;;;;5059733;28;21014;-49
2021/06/21 08:36:26;;;;;;;3.43;2.43;;;24.20;65.30;;;;;;5063932;28;20458;-49
2021/06/21 08:38:53;;;;;;;7.00;2.87;;;24.10;65.90;;;;;;5058904;28;21014;-49
2021/06/21 08:41:21;;;;;;;3.53;2.37;;;24.00;66.30;;;;;;5060348;28;20524;-49
2021/06/21 08:43:48;;;;;;;6.47;2.80;;;23.90;66.60;;;;;;5061993;28;21201;-49
2021/06/21 08:46:18;;;;;;;3.10;2.73;;;23.90;67.40;;;;;;5058886;28;20457;-49
2021/06/21 08:48:47;;;;;;;3.80;2.60;;;23.90;66.60;;;;;;5057013;28;20490;-48
2021/06/21 08:51:16;;;;;;;8.10;2.87;;;23.80;67.30;;;;;;5060541;28;21037;-49
2021/06/21 08:53:44;;;;;;;3.47;3.17;;;23.80;66.60;;;;;;5084893;28;20496;-49
2021/06/21 08:56:11;;;;;;;4.70;2.97;;;23.80;66.20;;;;;;5060567;28;20450;-49
2021/06/21 08:58:39;;;;;;;4.60;2.70;;;23.70;66.40;;;;;;5062283;28;20551;-49
2021/06/21 09:01:07;;;;;;;7.50;3.60;;;23.60;66.50;;;;;;5071686;28;20480;-51
2021/06/21 09:03:35;;;;;;;5.10;2.93;;;23.50;66.40;;;;;;5059931;28;20433;-49
2021/06/21 09:06:02;;;;;;;4.27;2.40;;;23.50;66.80;;;;;;5061002;28;20456;-49
2021/06/21 09:08:49;;;;;;;5.20;2.73;;;23.50;66.90;;;;;;5058788;28;20989;-49
2021/06/21 09:11:16;;;;;;;4.03;3.00;;;23.50;67.10;;;;;;5061863;28;20983;-48
2021/06/21 09:13:43;;;;;;;7.47;2.93;;;23.70;66.70;;;;;;5060836;28;20454;-49
2021/06/21 09:16:10;;;;;;;3.33;2.83;;;23.80;66.50;;;;;;5063619;28;20459;-49
2021/06/21 09:18:39;;;;;;;3.20;2.57;;;24.00;66.60;;;;;;5063662;28;20974;-48
2021/06/21 09:21:29;;;;;;;3.50;2.90;;;24.20;65.40;;;;;;5057471;28;21130;-49
2021/06/21 09:24:19;;;;;;;3.20;2.70;;;24.40;65.40;;;;;;5061146;28;20590;-49
2021/06/21 09:26:48;;;;;;;4.20;2.87;;;24.60;65.00;;;;;;5055553;28;20450;-48
2021/06/21 09:29:15;;;;;;;4.97;2.57;;;24.60;64.20;;;;;;5058284;28;20454;-49
2021/06/21 09:31:54;;;;;;;6.93;2.77;;;24.60;64.30;;;;;;5055671;28;20461;-49
2021/06/21 09:34:26;;;;;;;6.30;2.60;;;24.50;64.10;;;;;;5059907;28;20493;-49
2021/06/21 09:36:54;;;;;;;5.03;3.03;;;24.40;64.20;;;;;;5059669;28;20457;-49
2021/06/21 09:39:30;;;;;;;3.83;2.63;;;24.40;64.60;;;;;;5074040;28;20465;-49
2021/06/21 09:42:22;;;;;;;3.43;3.10;;;24.50;64.10;;;;;;5062076;28;20481;-49
2021/06/21 09:44:58;;;;;;;5.60;3.63;;;24.50;63.80;;;;;;5060553;28;20457;-49
2021/06/21 09:47:37;;;;;;;3.90;3.50;;;24.50;64.00;;;;;;5060836;28;20438;-49
2021/06/21 09:50:11;;;;;;;3.83;3.37;;;24.50;63.50;;;;;;5058806;28;20444;-48
2021/06/21 09:52:59;;;;;;;5.47;2.93;;;24.70;63.30;;;;;;5059721;28;20468;-49
2021/06/21 09:55:34;;;;;;;3.50;2.87;;;24.80;62.80;;;;;;5059331;28;20530;-48
2021/06/21 09:58:18;;;;;;;2.87;2.67;;;24.80;62.40;;;;;;5059922;28;20485;-48
2021/06/21 10:01:06;;;;;;;4.23;3.23;;;24.80;63.40;;;;;;5057860;28;20488;-48
2021/06/21 10:03:40;;;;;;;4.37;3.27;;;24.80;64.10;;;;;;5060711;28;20448;-48
2021/06/21 10:06:09;;;;;;;3.73;3.10;;;24.80;63.70;;;;;;5058222;28;20480;-48
2021/06/21 10:08:42;;;;;;;5.73;3.30;;;24.80;63.00;;;;;;5059674;28;20478;-48
2021/06/21 10:11:30;;;;;;;4.60;2.70;;;24.70;64.00;;;;;;5056508;28;20456;-48
2021/06/21 10:13:58;;;;;;;5.07;3.37;;;24.60;64.40;;;;;;5059268;28;20457;-48
2021/06/21 10:16:25;;;;;;;3.40;3.10;;;24.60;64.10;;;;;;5057583;28;20446;-48
2021/06/21 10:18:54;;;;;;;3.07;2.70;;;24.60;63.60;;;;;;5058640;28;20575;-48
2021/06/21 10:21:26;;;;;;;4.87;2.87;;;24.50;63.90;;;;;;5057653;28;21124;-48
2021/06/21 10:23:53;;;;;;;3.87;3.50;;;24.40;64.20;;;;;;5056031;28;20453;-48
2021/06/21 10:26:20;;;;;;;3.77;3.37;;;24.40;64.60;;;;;;5058122;28;20806;-48
2021/06/21 10:28:49;;;;;;;4.30;3.20;;;24.40;64.30;;;;;;5058735;28;20444;-48
2021/06/21 10:31:24;;;;;;;4.60;3.57;;;24.40;63.00;;;;;;5086321;28;20499;-48
2021/06/21 10:33:59;;;;;;;5.00;4.50;;;24.40;63.20;;;;;;5058490;28;20446;-48
2021/06/21 10:36:48;;;;;;;4.20;3.80;;;24.40;64.00;;;;;;5062258;28;20452;-48
2021/06/21 10:39:19;;;;;;;4.20;3.80;;;24.40;63.30;;;;;;5064072;28;20448;-48
2021/06/21 10:42:04;;;;;;;4.10;3.70;;;24.30;63.90;;;;;;5059431;28;20492;-48
2021/06/21 10:45:02;;;;;;;3.00;2.77;;;24.40;62.70;;;;;;5059715;28;20914;-48
2021/06/21 10:47:32;;;;;;;5.57;3.77;;;24.30;63.40;;;;;;5058703;28;20445;-48
2021/06/21 10:50:05;;;;;;;3.73;3.43;;;24.30;63.70;;;;;;5057597;28;20456;-48
2021/06/21 10:52:37;;;;;;;4.03;3.73;;;24.40;63.70;;;;;;5054074;28;20461;-48
2021/06/21 10:55:29;;;;;;;4.30;4.00;;;24.40;63.00;;;;;;5054511;28;20466;-48
2021/06/21 10:57:58;;;;;;;3.87;3.57;;;24.40;62.10;;;;;;5071333;28;20473;-48
2021/06/21 11:00:39;;;;;;;5.10;4.60;;;24.40;62.20;;;;;;5059063;28;20976;-48
2021/06/21 11:03:29;;;;;;;4.87;4.47;;;24.40;62.30;;;;;;5054427;28;20861;-48
2021/06/21 11:06:00;;;;;;;4.53;4.13;;;24.50;60.90;;;;;;5057290;28;21490;-48
2021/06/21 11:08:40;;;;;;;4.33;3.03;;;24.50;62.20;;;;;;5060911;28;20633;-48
2021/06/21 11:11:35;;;;;;;4.43;3.10;;;24.50;62.60;;;;;;5058482;28;20464;-48
2021/06/21 11:14:10;;;;;;;4.83;3.60;;;24.50;61.60;;;;;;5061324;28;20452;-48
2021/06/21 11:16:39;;;;;;;4.20;3.80;;;24.50;61.40;;;;;;5055307;28;20728;-48
2021/06/21 11:19:22;;;;;;;3.90;3.50;;;24.40;62.10;;;;;;5056091;28;20457;-48
2021/06/21 11:21:53;;;;;;;3.50;3.20;;;24.40;62.20;;;;;;5057498;28;20911;-48
2021/06/21 11:24:50;;;;;;;5.30;3.00;;;24.40;62.10;;;;;;5057193;28;20892;-48
2021/06/21 11:27:24;;;;;;;5.10;3.40;;;24.30;62.70;;;;;;5049823;28;20493;-48
2021/06/21 11:29:56;;;;;;;3.60;3.30;;;24.30;63.40;;;;;;5057194;28;20939;-48
2021/06/21 11:32:25;;;;;;;2.90;2.50;;;24.30;63.30;;;;;;5059291;28;20809;-48
2021/06/21 11:35:02;;;;;;;3.93;2.50;;;24.40;63.30;;;;;;5055982;28;20705;-48
2021/06/21 11:37:40;;;;;;;4.17;2.53;;;24.40;62.70;;;;;;5072316;28;20469;-48
2021/06/21 11:42:41;;;;;;;2.47;2.27;;;24.50;60.90;;;;;;5056885;28;20489;-48
2021/06/21 11:45:09;;;;;;;2.87;1.87;;;24.60;61.00;;;;;;5059803;28;20434;-48
2021/06/21 11:47:38;;;;;;;2.20;2.00;;;24.60;61.30;;;;;;5058886;28;20459;-48
2021/06/21 11:50:16;;;;;;;3.10;1.67;;;24.60;61.80;;;;;;5057370;28;20541;-48
2021/06/21 11:52:47;;;;;;;4.33;1.90;;;24.70;61.10;;;;;;5055519;28;20457;-48
2021/06/21 11:55:16;;;;;;;2.30;2.10;;;24.80;61.10;;;;;;5057107;28;20468;-48
2021/06/21 11:57:47;;;;;;;2.40;1.90;;;24.90;59.10;;;;;;5056274;28;20446;-48
2021/06/21 12:00:15;;;;;;;2.03;1.83;;;24.90;60.10;;;;;;5055151;28;20466;-48
2021/06/21 12:02:42;;;;;;;2.10;1.90;;;24.90;59.00;;;;;;5053648;28;21180;-48
2021/06/21 12:05:13;;;;;;;3.53;2.40;;;24.90;59.00;;;;;;5055671;28;20544;-48
2021/06/21 12:07:41;;;;;;;2.40;2.20;;;24.90;59.70;;;;;;5056872;28;20510;-48
2021/06/21 12:10:10;;;;;;;3.60;2.10;;;25.00;59.80;;;;;;5054569;28;20460;-48
2021/06/21 12:12:38;;;;;;;4.03;2.77;;;25.00;59.80;;;;;;5058714;28;20452;-48
2021/06/21 12:15:08;;;;;;;2.57;2.37;;;25.00;59.80;;;;;;5055283;28;20455;-48
2021/06/21 12:17:40;;;;;;;2.40;2.20;;;24.90;59.20;;;;;;5057282;28;20457;-49
2021/06/21 12:20:17;;;;;;;2.60;2.33;;;25.00;59.60;;;;;;5083742;28;20469;-48
2021/06/21 12:23:06;;;;;;;5.33;2.50;;;25.00;59.10;;;;;;5056918;28;20480;-48
2021/06/21 12:25:37;;;;;;;3.33;1.70;;;25.20;59.50;;;;;;5070567;28;20453;-49
2021/06/21 12:28:21;;;;;;;2.40;1.93;;;25.20;59.10;;;;;;5052218;28;20475;-48
2021/06/21 12:30:57;;;;;;;2.50;2.23;;;25.20;59.10;;;;;;5055870;28;20460;-48
2021/06/21 12:33:34;;;;;;;1.87;1.70;;;25.30;59.20;;;;;;5058326;28;20767;-48
2021/06/21 12:36:09;;;;;;;2.67;2.03;;;25.30;58.60;;;;;;5057464;28;20985;-48
2021/06/21 12:38:39;;;;;;;1.70;1.60;;;25.30;58.70;;;;;;5055083;28;20452;-48
2021/06/21 12:41:22;;;;;;;3.50;1.83;;;25.30;59.20;;;;;;5060587;28;20811;-49
2021/06/21 12:43:56;;;;;;;4.77;1.93;;;25.40;58.90;;;;;;5052554;28;20461;-48
2021/06/21 12:46:28;;;;;;;2.23;1.90;;;25.50;59.00;;;;;;5058857;28;20460;-48
2021/06/21 12:48:58;;;;;;;3.20;1.67;;;25.50;57.80;;;;;;5060957;28;20449;-48
2021/06/21 12:51:25;;;;;;;3.23;1.43;;;25.60;58.50;;;;;;5057049;28;20457;-48
2021/06/21 12:53:54;;;;;;;2.63;1.90;;;25.60;57.50;;;;;;5061197;28;20951;-49
2021/06/21 12:56:43;;;;;;;1.77;1.60;;;25.70;59.00;;;;;;5061211;28;20534;-49
2021/06/21 12:59:31;;;;;;;3.20;2.17;;;25.70;58.50;;;;;;5056752;28;20477;-48
2021/06/21 13:02:01;;;;;;;1.83;1.70;;;25.80;59.60;;;;;;5054323;28;21004;-49
2021/06/21 13:04:28;;;;;;;2.03;1.93;;;25.90;58.60;;;;;;5057163;28;21006;-48
2021/06/21 13:07:00;;;;;;;4.10;1.80;;;25.90;58.10;;;;;;5084910;27;20446;-48
2021/06/21 13:09:30;;;;;;;2.90;1.83;;;26.00;58.40;;;;;;5058249;28;22167;-48